sensor_id;sensor_type;location;lat;lon;timestamp;P1;durP1;ratioP1;P2;durP2;ratioP2
25331;SDS011;13284;52.748;13.452;2024-02-16T00:01:01;6.43;;;5.67;;
25331;SDS011;13284;52.748;13.452;2024-02-16T00:03:28;6.33;;;5.73;;
25331;SDS011;13284;52.748;13.452;2024-02-16T00:05:53;6.77;;;5.10;;
25331;SDS011;13284;52.748;13.452;2024-02-16T00:08:19;5.47;;;4.97;;
25331;SDS011;13284;52.748;13.452;2024-02-16T00:10:45;8.07;;;5.20;;
25331;SDS011;13284;52.748;13.452;2024-02-16T00:13:11;8.60;;;6.07;;
25331;SDS011;13284;52.748;13.452;2024-02-16T00:15:37;6.03;;;5.33;;
25331;SDS011;13284;52.748;13.452;2024-02-16T00:18:06;5.53;;;4.50;;
25331;SDS011;13284;52.748;13.452;2024-02-16T00:20:31;6.33;;;5.13;;
25331;SDS011;13284;52.748;13.452;2024-02-16T00:22:57;5.80;;;4.93;;
25331;SDS011;13284;52.748;13.452;2024-02-16T00:25:23;5.13;;;4.63;;
25331;SDS011;13284;52.748;13.452;2024-02-16T00:27:49;5.90;;;5.17;;
25331;SDS011;13284;52.748;13.452;2024-02-16T00:30:17;5.70;;;5.20;;
25331;SDS011;13284;52.748;13.452;2024-02-16T00:32:43;8.37;;;5.70;;
25331;SDS011;13284;52.748;13.452;2024-02-16T00:35:10;6.83;;;4.80;;
25331;SDS011;13284;52.748;13.452;2024-02-16T00:37:36;7.20;;;4.93;;
25331;SDS011;13284;52.748;13.452;2024-02-16T00:40:03;5.80;;;5.17;;
25331;SDS011;13284;52.748;13.452;2024-02-16T00:42:29;8.20;;;5.37;;
25331;SDS011;13284;52.748;13.452;2024-02-16T00:44:56;8.07;;;6.00;;
25331;SDS011;13284;52.748;13.452;2024-02-16T00:47:22;8.17;;;6.23;;
25331;SDS011;13284;52.748;13.452;2024-02-16T00:49:48;8.33;;;5.70;;
25331;SDS011;13284;52.748;13.452;2024-02-16T00:52:14;6.97;;;6.27;;
25331;SDS011;13284;52.748;13.452;2024-02-16T00:54:39;7.70;;;6.27;;
25331;SDS011;13284;52.748;13.452;2024-02-16T00:57:05;8.00;;;5.83;;
25331;SDS011;13284;52.748;13.452;2024-02-16T00:59:31;7.00;;;5.43;;
25331;SDS011;13284;52.748;13.452;2024-02-16T01:01:56;7.10;;;5.67;;
25331;SDS011;13284;52.748;13.452;2024-02-16T01:04:22;6.83;;;5.70;;
25331;SDS011;13284;52.748;13.452;2024-02-16T01:06:48;7.93;;;5.47;;
25331;SDS011;13284;52.748;13.452;2024-02-16T01:09:14;6.87;;;5.33;;
25331;SDS011;13284;52.748;13.452;2024-02-16T01:11:41;7.53;;;5.63;;
25331;SDS011;13284;52.748;13.452;2024-02-16T01:14:06;8.63;;;6.60;;
25331;SDS011;13284;52.748;13.452;2024-02-16T01:16:32;10.90;;;6.73;;
25331;SDS011;13284;52.748;13.452;2024-02-16T01:18:58;10.73;;;6.90;;
25331;SDS011;13284;52.748;13.452;2024-02-16T01:21:23;7.33;;;6.37;;
25331;SDS011;13284;52.748;13.452;2024-02-16T01:23:49;7.23;;;6.10;;
25331;SDS011;13284;52.748;13.452;2024-02-16T01:26:14;9.50;;;7.03;;
25331;SDS011;13284;52.748;13.452;2024-02-16T01:28:40;9.13;;;7.00;;
25331;SDS011;13284;52.748;13.452;2024-02-16T01:31:06;9.20;;;7.13;;
25331;SDS011;13284;52.748;13.452;2024-02-16T01:33:31;7.90;;;7.10;;
25331;SDS011;13284;52.748;13.452;2024-02-16T01:35:59;9.40;;;7.63;;
25331;SDS011;13284;52.748;13.452;2024-02-16T01:38:25;9.67;;;7.23;;
25331;SDS011;13284;52.748;13.452;2024-02-16T01:40:50;9.17;;;7.30;;
25331;SDS011;13284;52.748;13.452;2024-02-16T01:43:19;11.10;;;7.73;;
25331;SDS011;13284;52.748;13.452;2024-02-16T01:45:45;11.73;;;7.33;;
25331;SDS011;13284;52.748;13.452;2024-02-16T01:48:11;10.03;;;6.90;;
25331;SDS011;13284;52.748;13.452;2024-02-16T01:50:38;10.13;;;7.40;;
25331;SDS011;13284;52.748;13.452;2024-02-16T01:53:04;8.67;;;6.50;;
25331;SDS011;13284;52.748;13.452;2024-02-16T01:55:30;12.00;;;7.30;;
25331;SDS011;13284;52.748;13.452;2024-02-16T01:57:56;9.37;;;7.03;;
25331;SDS011;13284;52.748;13.452;2024-02-16T02:00:24;10.70;;;8.07;;
25331;SDS011;13284;52.748;13.452;2024-02-16T02:02:50;11.93;;;8.30;;
25331;SDS011;13284;52.748;13.452;2024-02-16T02:05:17;10.73;;;8.20;;
25331;SDS011;13284;52.748;13.452;2024-02-16T02:07:42;11.90;;;7.67;;
25331;SDS011;13284;52.748;13.452;2024-02-16T02:10:08;12.80;;;8.40;;
25331;SDS011;13284;52.748;13.452;2024-02-16T02:12:37;8.63;;;7.57;;
25331;SDS011;13284;52.748;13.452;2024-02-16T02:15:03;12.73;;;8.90;;
25331;SDS011;13284;52.748;13.452;2024-02-16T02:17:29;15.70;;;9.43;;
25331;SDS011;13284;52.748;13.452;2024-02-16T02:19:55;14.20;;;9.30;;
25331;SDS011;13284;52.748;13.452;2024-02-16T02:22:21;14.27;;;9.10;;
25331;SDS011;13284;52.748;13.452;2024-02-16T02:24:47;14.73;;;10.07;;
25331;SDS011;13284;52.748;13.452;2024-02-16T02:27:14;16.50;;;10.07;;
25331;SDS011;13284;52.748;13.452;2024-02-16T02:29:40;11.90;;;9.57;;
25331;SDS011;13284;52.748;13.452;2024-02-16T02:32:06;14.77;;;10.60;;
25331;SDS011;13284;52.748;13.452;2024-02-16T02:34:32;15.30;;;11.10;;
25331;SDS011;13284;52.748;13.452;2024-02-16T02:36:58;13.47;;;10.03;;
25331;SDS011;13284;52.748;13.452;2024-02-16T02:39:24;16.80;;;10.97;;
25331;SDS011;13284;52.748;13.452;2024-02-16T02:41:50;17.43;;;10.73;;
25331;SDS011;13284;52.748;13.452;2024-02-16T02:44:15;13.00;;;9.80;;
25331;SDS011;13284;52.748;13.452;2024-02-16T02:46:41;13.80;;;10.27;;
25331;SDS011;13284;52.748;13.452;2024-02-16T02:49:06;16.07;;;11.10;;
25331;SDS011;13284;52.748;13.452;2024-02-16T02:51:33;16.53;;;11.77;;
25331;SDS011;13284;52.748;13.452;2024-02-16T02:53:58;17.17;;;11.17;;
25331;SDS011;13284;52.748;13.452;2024-02-16T02:56:24;12.43;;;9.73;;
25331;SDS011;13284;52.748;13.452;2024-02-16T02:58:49;15.23;;;11.00;;
25331;SDS011;13284;52.748;13.452;2024-02-16T03:01:15;14.00;;;11.10;;
25331;SDS011;13284;52.748;13.452;2024-02-16T03:03:41;16.87;;;11.07;;
25331;SDS011;13284;52.748;13.452;2024-02-16T03:09:30;16.03;;;11.27;;
25331;SDS011;13284;52.748;13.452;2024-02-16T03:11:55;16.83;;;11.30;;
25331;SDS011;13284;52.748;13.452;2024-02-16T03:14:21;17.13;;;10.47;;
25331;SDS011;13284;52.748;13.452;2024-02-16T03:16:46;16.03;;;11.00;;
25331;SDS011;13284;52.748;13.452;2024-02-16T03:19:12;15.40;;;10.73;;
25331;SDS011;13284;52.748;13.452;2024-02-16T03:21:37;16.53;;;11.47;;
25331;SDS011;13284;52.748;13.452;2024-02-16T03:24:03;13.80;;;10.43;;
25331;SDS011;13284;52.748;13.452;2024-02-16T03:26:29;18.13;;;11.27;;
25331;SDS011;13284;52.748;13.452;2024-02-16T03:28:55;18.00;;;11.87;;
25331;SDS011;13284;52.748;13.452;2024-02-16T03:31:21;17.77;;;13.32;;
25331;SDS011;13284;52.748;13.452;2024-02-16T03:33:48;15.67;;;11.90;;
25331;SDS011;13284;52.748;13.452;2024-02-16T03:36:15;16.70;;;10.90;;
25331;SDS011;13284;52.748;13.452;2024-02-16T03:38:44;15.70;;;11.17;;
25331;SDS011;13284;52.748;13.452;2024-02-16T03:41:14;14.40;;;10.53;;
25331;SDS011;13284;52.748;13.452;2024-02-16T03:43:42;15.03;;;10.87;;
25331;SDS011;13284;52.748;13.452;2024-02-16T03:46:08;15.70;;;11.73;;
25331;SDS011;13284;52.748;13.452;2024-02-16T03:48:34;14.37;;;10.30;;
25331;SDS011;13284;52.748;13.452;2024-02-16T03:50:59;16.60;;;11.17;;
25331;SDS011;13284;52.748;13.452;2024-02-16T03:53:25;15.00;;;10.03;;
25331;SDS011;13284;52.748;13.452;2024-02-16T03:55:51;14.90;;;10.47;;
25331;SDS011;13284;52.748;13.452;2024-02-16T03:58:16;13.80;;;10.17;;
25331;SDS011;13284;52.748;13.452;2024-02-16T04:00:42;17.03;;;11.37;;
25331;SDS011;13284;52.748;13.452;2024-02-16T04:03:08;15.97;;;10.50;;
25331;SDS011;13284;52.748;13.452;2024-02-16T04:05:34;13.03;;;10.57;;
25331;SDS011;13284;52.748;13.452;2024-02-16T04:08:00;16.50;;;11.77;;
25331;SDS011;13284;52.748;13.452;2024-02-16T04:10:28;16.00;;;11.10;;
25331;SDS011;13284;52.748;13.452;2024-02-16T04:12:54;14.67;;;10.57;;
25331;SDS011;13284;52.748;13.452;2024-02-16T04:15:20;14.77;;;9.63;;
25331;SDS011;13284;52.748;13.452;2024-02-16T04:17:45;14.63;;;10.10;;
25331;SDS011;13284;52.748;13.452;2024-02-16T04:20:11;16.63;;;10.90;;
25331;SDS011;13284;52.748;13.452;2024-02-16T04:22:36;15.47;;;11.03;;
25331;SDS011;13284;52.748;13.452;2024-02-16T04:25:03;14.50;;;10.70;;
25331;SDS011;13284;52.748;13.452;2024-02-16T04:27:29;14.57;;;10.47;;
25331;SDS011;13284;52.748;13.452;2024-02-16T04:29:55;13.93;;;9.80;;
25331;SDS011;13284;52.748;13.452;2024-02-16T04:32:20;14.77;;;11.10;;
25331;SDS011;13284;52.748;13.452;2024-02-16T04:34:46;13.60;;;10.00;;
25331;SDS011;13284;52.748;13.452;2024-02-16T04:37:12;13.80;;;10.57;;
25331;SDS011;13284;52.748;13.452;2024-02-16T04:39:38;13.50;;;9.73;;
25331;SDS011;13284;52.748;13.452;2024-02-16T04:42:05;13.47;;;10.87;;
25331;SDS011;13284;52.748;13.452;2024-02-16T04:44:30;14.90;;;10.80;;
25331;SDS011;13284;52.748;13.452;2024-02-16T04:46:56;12.80;;;10.13;;
25331;SDS011;13284;52.748;13.452;2024-02-16T04:49:21;17.33;;;10.03;;
25331;SDS011;13284;52.748;13.452;2024-02-16T04:51:47;13.80;;;9.83;;
25331;SDS011;13284;52.748;13.452;2024-02-16T04:54:13;17.07;;;10.47;;
25331;SDS011;13284;52.748;13.452;2024-02-16T04:56:38;13.90;;;9.50;;
25331;SDS011;13284;52.748;13.452;2024-02-16T04:59:04;15.80;;;11.30;;
25331;SDS011;13284;52.748;13.452;2024-02-16T05:01:30;16.73;;;11.10;;
25331;SDS011;13284;52.748;13.452;2024-02-16T05:03:57;12.47;;;9.70;;
25331;SDS011;13284;52.748;13.452;2024-02-16T05:06:23;15.30;;;10.47;;
25331;SDS011;13284;52.748;13.452;2024-02-16T05:08:48;13.30;;;9.87;;
25331;SDS011;13284;52.748;13.452;2024-02-16T05:11:15;13.87;;;9.47;;
25331;SDS011;13284;52.748;13.452;2024-02-16T05:13:40;15.50;;;12.50;;
25331;SDS011;13284;52.748;13.452;2024-02-16T05:16:10;16.10;;;10.73;;
25331;SDS011;13284;52.748;13.452;2024-02-16T05:18:36;14.70;;;10.40;;
25331;SDS011;13284;52.748;13.452;2024-02-16T05:21:03;14.30;;;10.03;;
25331;SDS011;13284;52.748;13.452;2024-02-16T05:23:28;14.37;;;9.93;;
25331;SDS011;13284;52.748;13.452;2024-02-16T05:25:54;13.93;;;10.03;;
25331;SDS011;13284;52.748;13.452;2024-02-16T05:28:21;13.73;;;9.53;;
25331;SDS011;13284;52.748;13.452;2024-02-16T05:30:46;12.33;;;8.90;;
25331;SDS011;13284;52.748;13.452;2024-02-16T05:33:12;11.77;;;9.60;;
25331;SDS011;13284;52.748;13.452;2024-02-16T05:35:39;11.13;;;9.47;;
25331;SDS011;13284;52.748;13.452;2024-02-16T05:38:06;13.10;;;9.83;;
25331;SDS011;13284;52.748;13.452;2024-02-16T05:40:49;13.57;;;9.17;;
25331;SDS011;13284;52.748;13.452;2024-02-16T05:43:21;11.27;;;8.80;;
25331;SDS011;13284;52.748;13.452;2024-02-16T05:45:48;12.20;;;8.77;;
25331;SDS011;13284;52.748;13.452;2024-02-16T05:48:14;14.23;;;9.10;;
25331;SDS011;13284;52.748;13.452;2024-02-16T05:50:39;14.90;;;9.13;;
25331;SDS011;13284;52.748;13.452;2024-02-16T05:53:05;12.40;;;9.07;;
25331;SDS011;13284;52.748;13.452;2024-02-16T05:55:31;12.87;;;9.73;;
25331;SDS011;13284;52.748;13.452;2024-02-16T05:57:57;12.33;;;8.90;;
25331;SDS011;13284;52.748;13.452;2024-02-16T06:00:23;14.10;;;9.67;;
25331;SDS011;13284;52.748;13.452;2024-02-16T06:02:48;12.67;;;9.03;;
25331;SDS011;13284;52.748;13.452;2024-02-16T06:05:14;13.70;;;9.47;;
25331;SDS011;13284;52.748;13.452;2024-02-16T06:07:40;14.23;;;8.93;;
25331;SDS011;13284;52.748;13.452;2024-02-16T06:10:05;14.25;;;10.00;;
25331;SDS011;13284;52.748;13.452;2024-02-16T06:12:38;12.03;;;9.00;;
25331;SDS011;13284;52.748;13.452;2024-02-16T06:15:04;14.33;;;9.20;;
25331;SDS011;13284;52.748;13.452;2024-02-16T06:17:30;10.40;;;8.47;;
25331;SDS011;13284;52.748;13.452;2024-02-16T06:19:56;13.17;;;9.30;;
25331;SDS011;13284;52.748;13.452;2024-02-16T06:22:21;14.17;;;9.43;;
25331;SDS011;13284;52.748;13.452;2024-02-16T06:24:47;14.50;;;9.80;;
25331;SDS011;13284;52.748;13.452;2024-02-16T06:27:12;13.87;;;10.87;;
25331;SDS011;13284;52.748;13.452;2024-02-16T06:29:38;14.27;;;8.87;;
25331;SDS011;13284;52.748;13.452;2024-02-16T06:32:04;12.10;;;8.73;;
25331;SDS011;13284;52.748;13.452;2024-02-16T06:34:30;13.77;;;9.97;;
25331;SDS011;13284;52.748;13.452;2024-02-16T06:36:56;13.30;;;9.10;;
25331;SDS011;13284;52.748;13.452;2024-02-16T06:39:22;12.13;;;8.43;;
25331;SDS011;13284;52.748;13.452;2024-02-16T06:41:47;13.03;;;8.73;;
25331;SDS011;13284;52.748;13.452;2024-02-16T06:44:16;11.80;;;8.00;;
25331;SDS011;13284;52.748;13.452;2024-02-16T06:46:42;15.33;;;9.30;;
25331;SDS011;13284;52.748;13.452;2024-02-16T06:49:08;11.23;;;8.60;;
25331;SDS011;13284;52.748;13.452;2024-02-16T06:51:34;13.90;;;9.67;;
25331;SDS011;13284;52.748;13.452;2024-02-16T06:54:00;10.87;;;8.50;;
25331;SDS011;13284;52.748;13.452;2024-02-16T06:56:26;12.80;;;9.60;;
25331;SDS011;13284;52.748;13.452;2024-02-16T06:58:51;12.90;;;8.97;;
25331;SDS011;13284;52.748;13.452;2024-02-16T07:01:17;12.00;;;9.07;;
25331;SDS011;13284;52.748;13.452;2024-02-16T07:03:45;14.73;;;9.30;;
25331;SDS011;13284;52.748;13.452;2024-02-16T07:06:11;12.37;;;8.93;;
25331;SDS011;13284;52.748;13.452;2024-02-16T07:08:41;13.47;;;9.33;;
25331;SDS011;13284;52.748;13.452;2024-02-16T07:11:08;14.93;;;9.30;;
25331;SDS011;13284;52.748;13.452;2024-02-16T07:13:38;12.13;;;8.90;;
25331;SDS011;13284;52.748;13.452;2024-02-16T07:16:04;11.43;;;8.50;;
25331;SDS011;13284;52.748;13.452;2024-02-16T07:18:32;10.40;;;7.60;;
25331;SDS011;13284;52.748;13.452;2024-02-16T07:20:58;10.40;;;7.67;;
25331;SDS011;13284;52.748;13.452;2024-02-16T07:23:24;12.43;;;8.40;;
25331;SDS011;13284;52.748;13.452;2024-02-16T07:25:50;12.53;;;8.53;;
25331;SDS011;13284;52.748;13.452;2024-02-16T07:28:15;10.60;;;7.87;;
25331;SDS011;13284;52.748;13.452;2024-02-16T07:30:41;11.50;;;7.90;;
25331;SDS011;13284;52.748;13.452;2024-02-16T07:33:07;9.70;;;7.93;;
25331;SDS011;13284;52.748;13.452;2024-02-16T07:35:33;12.57;;;9.20;;
25331;SDS011;13284;52.748;13.452;2024-02-16T07:38:00;12.67;;;8.77;;
25331;SDS011;13284;52.748;13.452;2024-02-16T07:40:53;12.37;;;7.70;;
25331;SDS011;13284;52.748;13.452;2024-02-16T07:43:31;8.97;;;7.33;;
25331;SDS011;13284;52.748;13.452;2024-02-16T07:45:56;10.50;;;7.73;;
25331;SDS011;13284;52.748;13.452;2024-02-16T07:48:22;11.80;;;8.27;;
25331;SDS011;13284;52.748;13.452;2024-02-16T07:50:48;11.83;;;7.90;;
25331;SDS011;13284;52.748;13.452;2024-02-16T07:53:15;10.93;;;7.53;;
25331;SDS011;13284;52.748;13.452;2024-02-16T07:55:41;10.57;;;8.20;;
25331;SDS011;13284;52.748;13.452;2024-02-16T07:58:06;11.70;;;9.20;;
25331;SDS011;13284;52.748;13.452;2024-02-16T08:00:32;12.23;;;8.67;;
25331;SDS011;13284;52.748;13.452;2024-02-16T08:02:58;12.20;;;8.90;;
25331;SDS011;13284;52.748;13.452;2024-02-16T08:05:24;9.97;;;8.30;;
25331;SDS011;13284;52.748;13.452;2024-02-16T08:07:50;11.33;;;8.63;;
25331;SDS011;13284;52.748;13.452;2024-02-16T08:10:18;12.93;;;8.17;;
25331;SDS011;13284;52.748;13.452;2024-02-16T08:12:45;10.87;;;7.53;;
25331;SDS011;13284;52.748;13.452;2024-02-16T08:15:11;10.00;;;8.67;;
25331;SDS011;13284;52.748;13.452;2024-02-16T08:17:37;12.87;;;7.93;;
25331;SDS011;13284;52.748;13.452;2024-02-16T08:20:04;10.13;;;7.80;;
25331;SDS011;13284;52.748;13.452;2024-02-16T08:22:30;9.47;;;7.37;;
25331;SDS011;13284;52.748;13.452;2024-02-16T08:24:57;11.40;;;8.20;;
25331;SDS011;13284;52.748;13.452;2024-02-16T08:27:23;12.27;;;8.37;;
25331;SDS011;13284;52.748;13.452;2024-02-16T08:29:49;10.47;;;8.30;;
25331;SDS011;13284;52.748;13.452;2024-02-16T08:32:16;9.57;;;8.23;;
25331;SDS011;13284;52.748;13.452;2024-02-16T08:34:42;11.90;;;7.90;;
25331;SDS011;13284;52.748;13.452;2024-02-16T08:37:08;13.13;;;8.50;;
25331;SDS011;13284;52.748;13.452;2024-02-16T08:39:37;14.73;;;8.77;;
25331;SDS011;13284;52.748;13.452;2024-02-16T08:42:03;13.57;;;8.40;;
25331;SDS011;13284;52.748;13.452;2024-02-16T08:44:29;10.70;;;7.10;;
25331;SDS011;13284;52.748;13.452;2024-02-16T08:46:54;11.60;;;8.33;;
25331;SDS011;13284;52.748;13.452;2024-02-16T08:49:20;8.40;;;7.43;;
25331;SDS011;13284;52.748;13.452;2024-02-16T08:51:47;9.60;;;7.30;;
25331;SDS011;13284;52.748;13.452;2024-02-16T08:54:12;10.40;;;7.87;;
25331;SDS011;13284;52.748;13.452;2024-02-16T08:56:38;9.43;;;8.10;;
25331;SDS011;13284;52.748;13.452;2024-02-16T08:59:04;10.73;;;7.63;;
25331;SDS011;13284;52.748;13.452;2024-02-16T09:01:34;10.80;;;7.10;;
25331;SDS011;13284;52.748;13.452;2024-02-16T09:04:00;10.40;;;6.90;;
25331;SDS011;13284;52.748;13.452;2024-02-16T09:06:26;12.17;;;8.33;;
25331;SDS011;13284;52.748;13.452;2024-02-16T09:08:53;9.37;;;6.90;;
25331;SDS011;13284;52.748;13.452;2024-02-16T09:11:19;11.20;;;7.40;;
25331;SDS011;13284;52.748;13.452;2024-02-16T09:13:44;8.47;;;6.53;;
25331;SDS011;13284;52.748;13.452;2024-02-16T09:16:10;9.60;;;6.10;;
25331;SDS011;13284;52.748;13.452;2024-02-16T09:18:36;9.60;;;6.60;;
25331;SDS011;13284;52.748;13.452;2024-02-16T09:21:05;8.67;;;6.50;;
25331;SDS011;13284;52.748;13.452;2024-02-16T09:23:34;7.70;;;6.10;;
25331;SDS011;13284;52.748;13.452;2024-02-16T09:26:01;10.30;;;6.53;;
25331;SDS011;13284;52.748;13.452;2024-02-16T09:28:30;10.03;;;6.03;;
25331;SDS011;13284;52.748;13.452;2024-02-16T09:30:56;8.30;;;6.07;;
25331;SDS011;13284;52.748;13.452;2024-02-16T09:33:23;8.73;;;7.00;;
25331;SDS011;13284;52.748;13.452;2024-02-16T09:35:49;12.80;;;9.37;;
25331;SDS011;13284;52.748;13.452;2024-02-16T09:38:15;9.40;;;5.77;;
25331;SDS011;13284;52.748;13.452;2024-02-16T09:40:40;8.70;;;5.57;;
25331;SDS011;13284;52.748;13.452;2024-02-16T09:43:07;11.00;;;6.30;;
25331;SDS011;13284;52.748;13.452;2024-02-16T09:45:32;7.90;;;5.67;;
25331;SDS011;13284;52.748;13.452;2024-02-16T09:47:58;7.63;;;5.80;;
25331;SDS011;13284;52.748;13.452;2024-02-16T09:50:24;8.37;;;6.20;;
25331;SDS011;13284;52.748;13.452;2024-02-16T09:52:51;10.47;;;5.50;;
25331;SDS011;13284;52.748;13.452;2024-02-16T09:55:19;6.37;;;4.40;;
25331;SDS011;13284;52.748;13.452;2024-02-16T09:57:44;6.60;;;5.63;;
25331;SDS011;13284;52.748;13.452;2024-02-16T10:00:10;9.30;;;5.33;;
25331;SDS011;13284;52.748;13.452;2024-02-16T10:02:43;7.30;;;5.67;;
25331;SDS011;13284;52.748;13.452;2024-02-16T10:05:16;7.20;;;5.73;;
25331;SDS011;13284;52.748;13.452;2024-02-16T10:07:42;7.87;;;5.97;;
25331;SDS011;13284;52.748;13.452;2024-02-16T10:10:27;6.67;;;5.13;;
25331;SDS011;13284;52.748;13.452;2024-02-16T10:13:04;6.30;;;5.70;;
25331;SDS011;13284;52.748;13.452;2024-02-16T10:15:31;7.73;;;6.23;;
25331;SDS011;13284;52.748;13.452;2024-02-16T10:18:01;7.97;;;5.40;;
25331;SDS011;13284;52.748;13.452;2024-02-16T10:20:29;9.27;;;6.23;;
25331;SDS011;13284;52.748;13.452;2024-02-16T10:23:11;8.73;;;6.00;;
25331;SDS011;13284;52.748;13.452;2024-02-16T10:25:37;7.30;;;6.00;;
25331;SDS011;13284;52.748;13.452;2024-02-16T10:28:06;6.50;;;5.77;;
25331;SDS011;13284;52.748;13.452;2024-02-16T10:30:34;7.33;;;6.00;;
25331;SDS011;13284;52.748;13.452;2024-02-16T10:33:04;6.90;;;5.73;;
25331;SDS011;13284;52.748;13.452;2024-02-16T10:35:32;6.93;;;5.40;;
25331;SDS011;13284;52.748;13.452;2024-02-16T10:38:00;7.83;;;5.80;;
25331;SDS011;13284;52.748;13.452;2024-02-16T10:40:30;8.80;;;6.87;;
25331;SDS011;13284;52.748;13.452;2024-02-16T10:42:58;7.73;;;5.70;;
25331;SDS011;13284;52.748;13.452;2024-02-16T10:45:28;8.47;;;7.10;;
25331;SDS011;13284;52.748;13.452;2024-02-16T10:47:56;8.20;;;6.13;;
25331;SDS011;13284;52.748;13.452;2024-02-16T10:50:21;6.20;;;5.20;;
25331;SDS011;13284;52.748;13.452;2024-02-16T10:52:48;7.43;;;5.50;;
25331;SDS011;13284;52.748;13.452;2024-02-16T10:55:14;8.10;;;6.23;;
25331;SDS011;13284;52.748;13.452;2024-02-16T10:57:41;7.47;;;6.70;;
25331;SDS011;13284;52.748;13.452;2024-02-16T11:00:07;9.10;;;6.87;;
25331;SDS011;13284;52.748;13.452;2024-02-16T11:02:50;8.00;;;5.73;;
25331;SDS011;13284;52.748;13.452;2024-02-16T11:05:18;7.60;;;5.90;;
25331;SDS011;13284;52.748;13.452;2024-02-16T11:07:44;5.90;;;5.30;;
25331;SDS011;13284;52.748;13.452;2024-02-16T11:10:11;7.20;;;4.57;;
25331;SDS011;13284;52.748;13.452;2024-02-16T11:12:38;7.13;;;5.27;;
25331;SDS011;13284;52.748;13.452;2024-02-16T11:15:11;6.27;;;5.00;;
25331;SDS011;13284;52.748;13.452;2024-02-16T11:17:38;6.63;;;4.90;;
25331;SDS011;13284;52.748;13.452;2024-02-16T11:20:05;6.90;;;5.20;;
25331;SDS011;13284;52.748;13.452;2024-02-16T11:22:32;6.23;;;5.07;;
25331;SDS011;13284;52.748;13.452;2024-02-16T11:25:04;6.13;;;5.00;;
25331;SDS011;13284;52.748;13.452;2024-02-16T11:27:31;7.10;;;4.10;;
25331;SDS011;13284;52.748;13.452;2024-02-16T11:29:58;5.57;;;4.37;;
25331;SDS011;13284;52.748;13.452;2024-02-16T11:32:25;4.50;;;3.67;;
25331;SDS011;13284;52.748;13.452;2024-02-16T11:34:50;5.87;;;4.30;;
25331;SDS011;13284;52.748;13.452;2024-02-16T11:37:16;8.13;;;4.20;;
25331;SDS011;13284;52.748;13.452;2024-02-16T11:39:42;9.77;;;4.97;;
25331;SDS011;13284;52.748;13.452;2024-02-16T11:42:11;5.10;;;4.10;;
25331;SDS011;13284;52.748;13.452;2024-02-16T11:44:39;6.30;;;4.40;;
25331;SDS011;13284;52.748;13.452;2024-02-16T11:47:06;5.23;;;4.60;;
25331;SDS011;13284;52.748;13.452;2024-02-16T11:49:42;5.07;;;3.70;;
25331;SDS011;13284;52.748;13.452;2024-02-16T11:52:07;5.10;;;4.50;;
25331;SDS011;13284;52.748;13.452;2024-02-16T11:54:33;5.47;;;3.90;;
25331;SDS011;13284;52.748;13.452;2024-02-16T11:57:00;4.87;;;4.37;;
25331;SDS011;13284;52.748;13.452;2024-02-16T11:59:25;5.77;;;4.57;;
25331;SDS011;13284;52.748;13.452;2024-02-16T12:01:58;3.70;;;3.37;;
25331;SDS011;13284;52.748;13.452;2024-02-16T12:04:28;8.23;;;5.27;;
25331;SDS011;13284;52.748;13.452;2024-02-16T12:06:59;4.87;;;4.13;;
25331;SDS011;13284;52.748;13.452;2024-02-16T12:09:25;5.53;;;4.47;;
25331;SDS011;13284;52.748;13.452;2024-02-16T12:11:54;4.57;;;4.10;;
25331;SDS011;13284;52.748;13.452;2024-02-16T12:14:21;4.90;;;4.10;;
25331;SDS011;13284;52.748;13.452;2024-02-16T12:16:57;6.27;;;4.00;;
25331;SDS011;13284;52.748;13.452;2024-02-16T12:19:23;7.90;;;4.40;;
25331;SDS011;13284;52.748;13.452;2024-02-16T12:21:49;6.17;;;5.00;;
25331;SDS011;13284;52.748;13.452;2024-02-16T12:24:19;21.63;;;13.83;;
25331;SDS011;13284;52.748;13.452;2024-02-16T12:26:45;6.97;;;4.57;;
25331;SDS011;13284;52.748;13.452;2024-02-16T12:29:12;7.10;;;4.73;;
25331;SDS011;13284;52.748;13.452;2024-02-16T12:31:44;5.57;;;4.70;;
25331;SDS011;13284;52.748;13.452;2024-02-16T12:34:12;4.63;;;3.90;;
25331;SDS011;13284;52.748;13.452;2024-02-16T12:36:38;5.57;;;4.77;;
25331;SDS011;13284;52.748;13.452;2024-02-16T12:39:05;4.93;;;4.37;;
25331;SDS011;13284;52.748;13.452;2024-02-16T12:41:31;8.67;;;4.70;;
25331;SDS011;13284;52.748;13.452;2024-02-16T12:44:00;4.30;;;3.90;;
25331;SDS011;13284;52.748;13.452;2024-02-16T12:46:26;5.90;;;4.03;;
25331;SDS011;13284;52.748;13.452;2024-02-16T12:48:53;4.63;;;4.10;;
25331;SDS011;13284;52.748;13.452;2024-02-16T12:51:18;5.40;;;4.63;;
25331;SDS011;13284;52.748;13.452;2024-02-16T12:53:44;6.20;;;3.90;;
25331;SDS011;13284;52.748;13.452;2024-02-16T12:56:10;5.07;;;4.57;;
25331;SDS011;13284;52.748;13.452;2024-02-16T12:58:36;5.57;;;4.20;;
25331;SDS011;13284;52.748;13.452;2024-02-16T13:01:02;6.10;;;3.93;;
25331;SDS011;13284;52.748;13.452;2024-02-16T13:03:31;5.50;;;4.97;;
25331;SDS011;13284;52.748;13.452;2024-02-16T13:06:00;4.07;;;3.67;;
25331;SDS011;13284;52.748;13.452;2024-02-16T13:08:26;6.53;;;4.40;;
25331;SDS011;13284;52.748;13.452;2024-02-16T13:10:52;7.70;;;4.80;;
25331;SDS011;13284;52.748;13.452;2024-02-16T13:13:18;4.67;;;4.27;;
25331;SDS011;13284;52.748;13.452;2024-02-16T13:15:45;4.70;;;4.13;;
25331;SDS011;13284;52.748;13.452;2024-02-16T13:18:12;5.73;;;4.10;;
25331;SDS011;13284;52.748;13.452;2024-02-16T13:20:38;4.53;;;3.80;;
25331;SDS011;13284;52.748;13.452;2024-02-16T13:23:03;6.40;;;3.73;;
25331;SDS011;13284;52.748;13.452;2024-02-16T13:25:29;3.50;;;2.97;;
25331;SDS011;13284;52.748;13.452;2024-02-16T13:27:54;4.90;;;4.13;;
25331;SDS011;13284;52.748;13.452;2024-02-16T13:30:20;5.90;;;3.60;;
25331;SDS011;13284;52.748;13.452;2024-02-16T13:32:45;4.17;;;3.73;;
25331;SDS011;13284;52.748;13.452;2024-02-16T13:35:11;4.50;;;3.50;;
25331;SDS011;13284;52.748;13.452;2024-02-16T13:37:38;4.10;;;3.10;;
25331;SDS011;13284;52.748;13.452;2024-02-16T13:40:06;4.37;;;3.10;;
25331;SDS011;13284;52.748;13.452;2024-02-16T13:42:35;4.03;;;3.13;;
25331;SDS011;13284;52.748;13.452;2024-02-16T13:45:01;3.00;;;2.80;;
25331;SDS011;13284;52.748;13.452;2024-02-16T13:47:27;3.97;;;3.17;;
25331;SDS011;13284;52.748;13.452;2024-02-16T13:49:53;3.97;;;3.57;;
25331;SDS011;13284;52.748;13.452;2024-02-16T13:52:18;5.03;;;3.20;;
25331;SDS011;13284;52.748;13.452;2024-02-16T13:54:44;3.23;;;2.73;;
25331;SDS011;13284;52.748;13.452;2024-02-16T13:57:10;4.90;;;3.00;;
25331;SDS011;13284;52.748;13.452;2024-02-16T13:59:35;3.80;;;3.17;;
25331;SDS011;13284;52.748;13.452;2024-02-16T14:02:01;3.60;;;3.07;;
25331;SDS011;13284;52.748;13.452;2024-02-16T14:04:27;3.57;;;3.27;;
25331;SDS011;13284;52.748;13.452;2024-02-16T14:06:53;3.00;;;2.30;;
25331;SDS011;13284;52.748;13.452;2024-02-16T14:09:19;4.67;;;2.63;;
25331;SDS011;13284;52.748;13.452;2024-02-16T14:11:45;3.10;;;2.53;;
25331;SDS011;13284;52.748;13.452;2024-02-16T14:14:11;3.27;;;2.40;;
25331;SDS011;13284;52.748;13.452;2024-02-16T14:19:58;4.33;;;2.33;;
25331;SDS011;13284;52.748;13.452;2024-02-16T14:22:24;3.10;;;2.60;;
25331;SDS011;13284;52.748;13.452;2024-02-16T14:24:50;3.63;;;2.63;;
25331;SDS011;13284;52.748;13.452;2024-02-16T14:27:15;2.73;;;2.53;;
25331;SDS011;13284;52.748;13.452;2024-02-16T14:29:41;4.13;;;3.03;;